x

Buoy M01 - Jordan Basin (44037) Wave Buoy

2:04am - Wed 1st Oct 2014 All times are EDT. -4 hours from GMT.

  • Sig Wave height 3.0ft
  • Peak Period 5s
  • Wind
    16mph, 20mph gusts
  • Sea Temp 59°f
  • Air Temp 57°f
  • Sea Pressure 1016.5mb
  • Buoy M01 - Jordan Basin
  • Buoy M01 - Jordan Basin

More Historic Weather Station data

Upgrade to MSW Pro to gain access to the past 30 days of data for over 8000 Wavebouys and Weather Stations around the globe.

Join Pro

Comparision Forecast

View Surf forecast
   
Wed 10/01 2:04am 3ft 5s 16 20 mph 1016.5mb 59f 57f
1:04am 3ft 5s 13 16 mph 1016.5mb 59f 57f
12:04am 3.5ft 5s 16 18 mph 1016.7mb 59f 57f
Tue 09/30 11:04pm 3.5ft 5s 16 20 mph 1016.6mb 59f 57f
9:04pm 3ft 5s 16 18 mph 1016.1mb 60f 57f
8:04pm 3.5ft 5s 13 16 mph 1016.4mb 60f 58f
6:04pm 3.5ft 5s 13
mph
1015.8mb 60f 58f
4:04pm  -   -  16 18 mph 1014.9mb - 57f
3:04pm  -   -  11 13 mph 1015.2mb - 58f
2:04pm 3ft 6s 9 11 mph 1015.1mb 60f 58f
1:04pm 3.5ft 5s 13 18 mph 1015.3mb 59f 57f
12:04pm 3.5ft 5s 13 18 mph 1015.9mb 58f 57f
10:04am 3.5ft 5s  -  mph - 58f -
9:04am 5ft 6s  -  mph - 60f -
8:04am 4ft 5s 11 13 mph 1015.5mb 60f 59f
4:04am 5.5ft 6s 11 13 mph 1014.8mb 61f 59f
3:04am 5ft 6s 11 13 mph 1014.6mb 60f 59f
2:04am 5ft 8s 11 13 mph 1015.1mb 58f 58f
12:04am 6ft 8s 18 20 mph 1015.1mb 58f 58f
Mon 09/29 11:04pm 6ft 8s 18 20 mph 1015.7mb 58f 58f
8:04pm 7ft 8s 22 27 mph 1016.4mb 58f 58f
7:04pm 6ft 6s 20 25 mph 1016.4mb 58f 58f
5:04pm 7ft 6s  -  mph - 58f -
4:04pm 7ft 6s 20 25 mph 1015.1mb 58f 58f
2:04pm 5.5ft 6s 25 29 mph 1014.7mb 58f 57f
1:04pm 4.5ft 5s 22 29 mph 1015mb 58f 57f
12:04pm 2.5ft 3s 22 29 mph 1015.1mb 59f 58f
11:04am  -   -  16 20 mph 1015.1mb - 60f
10:04am 2.5ft 5s 9 11 mph 1014.8mb 59f 60f
9:04am 2.5ft 8s 7
mph
1014.4mb 58f 60f
8:04am 2.5ft 5s 2
mph
1014.1mb 58f 59f
6:04am 2ft 5s  -  mph - 58f -
4:04am 3ft 5s 9 11 mph 1013.1mb 58f 60f
3:04am 3ft 5s 11 13 mph 1013mb 58f 61f
2:04am  -   -  13 16 mph 1013.3mb - 61f
1:04am 3ft 5s 13 16 mph 1013.6mb 59f 61f
12:04am 3ft 4s 16 18 mph 1013.8mb 59f 61f
Sun 09/28 11:04pm  -   -  16 18 mph 1014.3mb - 61f
9:04pm 2.5ft 4s 13 18 mph 1015.3mb 59f 61f
8:04pm 3ft 4s 16
mph
1015.4mb 58f 62f
7:04pm 2ft 4s 16
mph
1015.5mb 59f 62f
6:04pm 1.6ft 3s  -  mph - 59f -
5:04pm 1ft 3s  -  mph - 60f -
2:04pm 2ft 8s 11
mph
1017.2mb 60f 62f
1:04pm 2ft 8s 11
mph
1018mb 60f 62f
12:04pm 2ft 8s 7
mph
1018.8mb 60f 61f
11:04am 2ft 8s 7
mph
1019.3mb 59f 61f
10:04am 1.6ft 8s 7
mph
1019.7mb 59f 61f
9:04am 2ft 8s 7 9 mph 1020.1mb 59f 61f
8:04am 2ft 8s 7 9 mph 1020.5mb 58f 61f
7:04am 2ft 8s 7
mph
1020.4mb 58f 60f
6:04am 1.6ft 8s 7
mph
1020.5mb 58f 60f
5:04am 2ft 8s 7
mph
1020.5mb 58f 60f
4:04am 1.6ft 8s 7 9 mph 1020.5mb 58f 60f
3:04am 2ft 8s 7 9 mph 1020.6mb 58f 60f
2:04am  -   -  7 9 mph 1020.5mb - 60f
1:04am 2ft 8s 7 9 mph 1020.6mb 58f 61f
12:04am 2ft 8s 7
mph
1020.8mb 59f 60f
Sat 09/27 11:04pm 2ft 8s 7
mph
1020.8mb 59f 60f
10:04pm 2.5ft 6s 4 7 mph 1020.9mb 59f 60f
9:04pm 2.5ft 6s 4
mph
1020.6mb 59f 60f
8:04pm 2ft 8s 4
mph
1020.3mb 59f 60f
6:04pm 2.5ft 6s 2 4 mph 1019.9mb 59f 61f
4:04pm  -   -  7 9 mph 1019.2mb - 62f
3:04pm 2ft 8s 7
mph
1019mb 58f 61f
1:04pm 2.5ft 8s 7
mph
1019.4mb 58f 60f
12:04pm 2.5ft 8s 7 9 mph 1019.6mb 58f 60f
11:04am 2.5ft 6s 9
mph
1019.7mb 58f 59f
10:04am 2.5ft 8s 9 11 mph 1019.5mb 58f 59f
9:04am 2.5ft 6s 9 11 mph 1019.3mb 58f 59f
8:04am 2.5ft 8s 9 11 mph 1018.7mb 58f 59f